Time;durP1;ratioP1;P1;durP2;ratioP2;P2;SDS_P1;SDS_P2;PMS_P1;PMS_P2;Temp;Humidity;BMP_temperature;BMP_pressure;BME280_temperature;BME280_humidity;BME280_pressure;Samples;Min_cycle;Max_cycle;Signal;HPM_P1;HPM_P2
2022/08/23 00:02:07;;;;;;;;;0.00;0.00;;;;;22.08;60.14;100608.91;5061775;27;45587;-76
2022/08/23 00:04:40;;;;;;;;;0.00;0.00;;;;;22.05;60.24;100606.44;5075733;27;45520;-76
2022/08/23 00:07:14;;;;;;;;;0.25;0.25;;;;;22.03;60.12;100610.19;5077759;27;46182;-75
2022/08/23 00:09:40;;;;;;;;;0.00;0.00;;;;;21.97;60.74;100598.88;5085005;27;45576;-77
2022/08/23 00:12:18;;;;;;;;;1.00;0.50;;;;;21.93;61.02;100599.19;5081489;27;45568;-76
2022/08/23 00:14:48;;;;;;;;;0.00;0.00;;;;;21.89;60.86;100611.13;5082614;27;44858;-77
2022/08/23 00:17:13;;;;;;;;;0.00;0.00;;;;;21.87;61.07;100599.59;5067725;28;45459;-75
2022/08/23 00:19:39;;;;;;;;;1.00;0.50;;;;;21.77;61.02;100586.78;5079832;27;45396;-76
2022/08/23 00:22:05;;;;;;;;;0.00;0.00;;;;;21.83;61.20;100599.81;5086897;27;45506;-76
2022/08/23 00:24:31;;;;;;;;;2.50;0.00;;;;;21.77;61.19;100597.53;5079164;27;45418;-75
2022/08/23 00:27:03;;;;;;;;;0.00;0.00;;;;;21.76;61.81;100590.41;5082766;27;45550;-75
2022/08/23 00:29:42;;;;;;;;;0.00;0.00;;;;;21.79;61.75;100594.75;5085175;27;45608;-76
2022/08/23 00:32:12;;;;;;;;;1.00;1.00;;;;;21.76;62.01;100590.41;5088203;27;45540;-75
2022/08/23 00:34:38;;;;;;;;;0.00;0.00;;;;;21.73;61.94;100582.56;5088470;27;45670;-77
2022/08/23 00:37:05;;;;;;;;;0.00;0.00;;;;;21.74;61.40;100584.28;5072889;27;45523;-76
2022/08/23 00:39:30;;;;;;;;;0.00;0.00;;;;;21.72;61.82;100582.66;5081380;27;45536;-76
2022/08/23 00:41:59;;;;;;;;;0.00;0.00;;;;;21.75;62.18;100588.69;5081818;27;45678;-76
2022/08/23 00:50:36;;;;;;;;;0.00;0.00;;;;;21.69;62.08;100594.47;5086266;27;45741;-76
2022/08/23 00:53:10;;;;;;;;;0.00;0.00;;;;;21.69;62.06;100589.09;5081824;27;45547;-77
2022/08/23 00:55:39;;;;;;;;;1.00;1.00;;;;;21.66;62.29;100589.31;5084843;27;45617;-75
2022/08/23 00:58:07;;;;;;;;;0.00;0.00;;;;;21.67;62.37;100590.16;5080329;27;45799;-76
2022/08/23 01:00:32;;;;;;;;;0.00;0.00;;;;;21.64;62.42;100592.09;5080055;27;45502;-75
2022/08/23 01:02:58;;;;;;;;;2.00;1.00;;;;;21.62;62.28;100591.34;5082571;27;45460;-76
2022/08/23 01:05:42;;;;;;;;;0.00;0.00;;;;;21.63;62.46;100589.50;5081913;27;45538;-76
2022/08/23 01:08:07;;;;;;;;;1.00;0.00;;;;;21.59;62.43;100596.94;5084313;27;46564;-74
2022/08/23 01:10:42;;;;;;;;;1.75;0.00;;;;;21.58;62.74;100594.34;5084784;27;45450;-76
2022/08/23 01:13:14;;;;;;;;;0.00;0.00;;;;;21.59;62.60;100601.41;5076492;27;45521;-76
2022/08/23 01:15:46;;;;;;;;;0.00;0.00;;;;;21.58;62.78;100597.03;5088349;27;45409;-75
2022/08/23 01:18:15;;;;;;;;;0.00;0.00;;;;;21.61;62.58;100603.06;5086272;27;45525;-75
2022/08/23 01:21:19;;;;;;;;;0.00;0.00;;;;;21.59;62.80;100596.03;5081229;27;45584;-75
2022/08/23 01:23:51;;;;;;;;;0.00;0.00;;;;;21.59;62.93;100598.72;5083654;27;45600;-76
2022/08/23 01:26:19;;;;;;;;;0.50;0.00;;;;;21.59;62.84;100598.72;5074630;27;45505;-77
2022/08/23 01:28:45;;;;;;;;;0.00;0.00;;;;;21.54;63.10;100601.72;5082126;27;47108;-76
2022/08/23 01:31:12;;;;;;;;;0.00;0.00;;;;;21.52;62.78;100598.28;5080902;27;45496;-76
2022/08/23 01:33:40;;;;;;;;;0.00;0.00;;;;;21.54;62.97;100595.50;5080706;27;45663;-75
2022/08/23 01:36:09;;;;;;;;;0.00;0.00;;;;;21.54;63.00;100600.88;5084734;27;45847;-75
2022/08/23 01:38:35;;;;;;;;;0.00;0.00;;;;;21.47;63.24;100589.63;5081694;27;47220;-76
2022/08/23 01:41:01;;;;;;;;;0.00;0.00;;;;;21.50;63.28;100600.22;5079418;27;45627;-75
2022/08/23 01:43:26;;;;;;;;;0.00;0.00;;;;;21.53;63.03;100607.19;5066714;27;45446;-76
2022/08/23 01:45:52;;;;;;;;;0.00;0.00;;;;;21.54;63.20;100606.25;5086348;27;45604;-75
2022/08/23 01:48:20;;;;;;;;;0.00;0.00;;;;;21.52;62.86;100597.44;5080850;27;45515;-76
2022/08/23 01:50:46;;;;;;;;;0.25;0.00;;;;;21.55;62.76;100602.59;5077713;27;45354;-76
2022/08/23 01:53:14;;;;;;;;;0.75;0.75;;;;;21.56;62.87;100604.31;5082151;27;45524;-76
2022/08/23 01:55:41;;;;;;;;;0.00;0.00;;;;;21.57;62.79;100600.66;5084836;27;45549;-77
2022/08/23 01:58:08;;;;;;;;;0.00;0.00;;;;;21.53;62.88;100596.44;5081204;27;46611;-75
2022/08/23 02:00:37;;;;;;;;;0.00;0.00;;;;;21.54;62.72;100592.81;5081946;27;45492;-75
2022/08/23 02:03:04;;;;;;;;;1.00;0.00;;;;;21.56;62.74;100597.13;5079707;27;45410;-76
2022/08/23 02:05:30;;;;;;;;;0.00;0.00;;;;;21.56;62.56;100596.25;5077765;27;45406;-75
2022/08/23 02:07:55;;;;;;;;;0.00;0.00;;;;;21.43;62.71;100580.03;5077010;27;46298;-76
2022/08/23 02:10:21;;;;;;;;;0.00;0.00;;;;;21.55;62.71;100608.84;5078845;27;45739;-75
2022/08/23 02:12:48;;;;;;;;;0.00;0.00;;;;;21.54;62.66;100604.41;5082532;27;45587;-76
2022/08/23 02:15:15;;;;;;;;;0.00;0.00;;;;;21.53;62.65;100610.78;5079992;27;45439;-75
2022/08/23 02:17:40;;;;;;;;;1.00;0.00;;;;;21.53;62.85;100610.78;5088189;27;45481;-76
2022/08/23 02:20:06;;;;;;;;;0.00;0.00;;;;;21.52;62.64;100600.97;5085036;27;45479;-76
2022/08/23 02:22:32;;;;;;;;;0.00;0.00;;;;;21.47;62.61;100595.00;5083835;27;45525;-76
2022/08/23 02:24:59;;;;;;;;;0.50;0.50;;;;;21.55;62.69;100605.28;5080126;27;45421;-76
2022/08/23 02:27:24;;;;;;;;;0.00;0.00;;;;;21.56;62.52;100607.00;5079682;27;45609;-75
2022/08/23 02:29:50;;;;;;;;;1.00;1.00;;;;;21.56;62.82;100609.69;5080253;27;45507;-75
2022/08/23 02:32:17;;;;;;;;;1.00;0.00;;;;;21.55;62.66;100618.75;5083507;27;47178;-76
2022/08/23 02:34:43;;;;;;;;;0.00;0.00;;;;;21.53;62.43;100612.59;5085113;27;45466;-76
2022/08/23 02:37:11;;;;;;;;;0.00;0.00;;;;;21.48;62.56;100604.78;5081909;27;46834;-76
2022/08/23 02:39:37;;;;;;;;;0.00;0.00;;;;;21.53;62.78;100610.78;5078254;27;45439;-75
2022/08/23 02:42:03;;;;;;;;;0.75;0.00;;;;;21.54;62.80;100614.31;5083617;27;45479;-76
2022/08/23 02:44:30;;;;;;;;;0.25;0.25;;;;;21.46;62.91;100599.50;5080933;27;45706;-75
2022/08/23 02:46:55;;;;;;;;;0.00;0.00;;;;;21.41;63.17;100585.50;5067203;27;46203;-75
2022/08/23 02:49:20;;;;;;;;;0.50;0.00;;;;;21.50;63.06;100610.09;5083298;27;45682;-75
2022/08/23 02:51:46;;;;;;;;;0.00;0.00;;;;;21.53;63.27;100605.41;5081635;27;45458;-76
2022/08/23 02:54:12;;;;;;;;;0.00;0.00;;;;;21.53;62.97;100604.50;5080601;27;45453;-77
2022/08/23 02:56:37;;;;;;;;;0.00;0.00;;;;;21.55;63.37;100608.84;5079973;27;46204;-75
2022/08/23 02:59:05;;;;;;;;;0.00;0.00;;;;;21.55;63.12;100607.97;5079328;27;45887;-76
2022/08/23 03:01:35;;;;;;;;;0.00;0.00;;;;;21.56;63.44;100609.69;5080075;27;45482;-76
2022/08/23 03:04:02;;;;;;;;;0.00;0.00;;;;;21.55;63.03;100608.84;5076552;27;45493;-74
2022/08/23 03:06:29;;;;;;;;;0.00;0.00;;;;;21.51;63.54;100596.56;5062297;27;46132;-75
2022/08/23 03:08:55;;;;;;;;;0.00;0.00;;;;;21.53;63.51;100609.88;5079972;27;45465;-75
2022/08/23 03:11:22;;;;;;;;;0.25;0.00;;;;;21.55;63.71;100621.44;5082680;27;45646;-75
2022/08/23 03:13:49;;;;;;;;;0.00;0.00;;;;;21.53;63.69;100621.53;5090367;27;45753;-75
2022/08/23 03:16:16;;;;;;;;;0.00;0.00;;;;;21.53;63.66;100620.66;5071341;27;46535;-75
2022/08/23 03:18:42;;;;;;;;;0.00;0.00;;;;;21.52;63.67;100624.31;5081703;27;45544;-75
2022/08/23 03:21:09;;;;;;;;;0.00;0.00;;;;;21.53;63.57;100626.03;5083151;27;45516;-76
2022/08/23 03:23:35;;;;;;;;;0.00;0.00;;;;;21.53;63.82;100620.66;5082901;27;45505;-75
2022/08/23 03:26:06;;;;;;;;;0.00;0.00;;;;;21.52;63.86;100629.69;5059000;27;45638;-77
2022/08/23 03:28:34;;;;;;;;;1.00;0.00;;;;;21.45;63.64;100616.63;5081192;27;45627;-75
2022/08/23 03:30:59;;;;;;;;;0.00;0.00;;;;;21.51;63.65;100622.59;5082437;27;45530;-75
2022/08/23 03:33:25;;;;;;;;;1.50;0.00;;;;;21.42;63.71;100607.88;5075110;27;45675;-75
2022/08/23 03:35:50;;;;;;;;;0.00;0.00;;;;;21.46;63.75;100615.63;5077684;27;45509;-76
2022/08/23 03:38:17;;;;;;;;;0.00;0.00;;;;;21.47;63.83;100622.75;5081112;27;45528;-76
2022/08/23 03:40:42;;;;;;;;;0.25;0.25;;;;;21.48;63.64;100618.22;5044608;27;45497;-74
2022/08/23 03:43:08;;;;;;;;;0.00;0.00;;;;;21.43;63.77;100606.91;5086301;27;45474;-75
2022/08/23 03:45:34;;;;;;;;;1.00;0.00;;;;;21.47;64.12;100624.59;5086225;27;46297;-76
2022/08/23 03:48:00;;;;;;;;;0.50;0.00;;;;;21.46;64.13;100623.69;5089053;27;45605;-75
2022/08/23 03:50:25;;;;;;;;;0.00;0.00;;;;;21.42;64.02;100619.50;5086320;27;45581;-75
2022/08/23 03:52:51;;;;;;;;;0.00;0.00;;;;;21.40;64.31;100625.94;5082452;27;45460;-75
2022/08/23 03:55:16;;;;;;;;;0.00;0.00;;;;;21.39;64.36;100633.16;5081300;27;45469;-75
2022/08/23 03:57:41;;;;;;;;;0.00;0.00;;;;;21.36;64.44;100636.00;5079884;27;45533;-75
2022/08/23 04:00:09;;;;;;;;;0.50;0.00;;;;;21.37;64.69;100645.81;5089189;27;45472;-75
2022/08/23 04:02:35;;;;;;;;;0.00;0.00;;;;;21.36;64.88;100635.16;5078110;27;45595;-75
2022/08/23 04:05:01;;;;;;;;;0.00;0.00;;;;;21.36;64.69;100643.22;5086749;27;46306;-75
2022/08/23 04:07:26;;;;;;;;;1.00;0.00;;;;;21.36;65.16;100648.59;5088576;27;45607;-76
2022/08/23 04:09:52;;;;;;;;;0.00;0.00;;;;;21.34;64.97;100647.84;5080807;27;45445;-75
2022/08/23 04:12:17;;;;;;;;;2.00;0.00;;;;;21.34;64.62;100643.31;5093066;27;45270;-74
2022/08/23 04:14:44;;;;;;;;;1.25;0.00;;;;;21.40;64.57;100650.97;5068002;27;45400;-77
2022/08/23 04:17:13;;;;;;;;;0.00;0.00;;;;;21.42;64.54;100657.16;5091801;27;45524;-76
2022/08/23 04:19:38;;;;;;;;;0.00;0.00;;;;;21.45;64.25;100656.94;5064703;27;45577;-75
2022/08/23 04:22:04;;;;;;;;;1.00;1.00;;;;;21.49;64.54;100654.91;5081655;27;45476;-76
2022/08/23 04:24:31;;;;;;;;;1.50;0.00;;;;;21.47;64.45;100654.16;5081970;27;45448;-75
2022/08/23 04:26:56;;;;;;;;;0.00;0.00;;;;;21.52;64.24;100661.97;5082104;27;45450;-76
2022/08/23 04:29:22;;;;;;;;;1.00;1.00;;;;;21.54;64.31;100663.56;5082404;27;45579;-76
2022/08/23 04:31:47;;;;;;;;;0.00;0.00;;;;;21.55;64.62;100661.75;5084142;27;45522;-76
2022/08/23 04:34:15;;;;;;;;;0.00;0.00;;;;;21.48;64.45;100648.69;5079324;27;45613;-74
2022/08/23 04:36:41;;;;;;;;;0.00;0.00;;;;;21.54;64.12;100666.25;5081126;27;45484;-76
2022/08/23 04:39:08;;;;;;;;;2.00;0.00;;;;;21.57;64.20;100670.56;5080106;27;45508;-76
2022/08/23 04:44:19;;;;;;;;;0.00;0.00;;;;;21.57;63.94;100671.44;5083979;27;45653;-75
2022/08/23 04:46:45;;;;;;;;;1.00;1.00;;;;;21.56;64.04;100679.59;5083678;27;45521;-75
2022/08/23 04:49:10;;;;;;;;;0.00;0.00;;;;;21.57;64.23;100686.72;5085818;27;45436;-76
2022/08/23 04:51:37;;;;;;;;;0.00;0.00;;;;;21.56;64.00;100687.66;5084517;27;45495;-75
2022/08/23 04:54:03;;;;;;;;;0.00;0.00;;;;;21.51;64.39;100671.81;5079308;27;45525;-76
2022/08/23 04:56:29;;;;;;;;;1.75;0.75;;;;;21.54;63.98;100686.91;5084941;27;45557;-76
2022/08/23 04:58:55;;;;;;;;;1.00;1.00;;;;;21.55;64.19;100689.50;5080672;27;45509;-77
2022/08/23 05:01:24;;;;;;;;;0.00;0.00;;;;;21.52;64.09;100688.84;5081424;27;45586;-76
2022/08/23 05:03:50;;;;;;;;;0.00;0.00;;;;;21.54;64.31;100684.22;5081445;27;47099;-76
2022/08/23 05:06:15;;;;;;;;;0.00;0.00;;;;;21.56;63.93;100693.94;5076873;27;45471;-76
2022/08/23 05:08:41;;;;;;;;;0.00;0.00;;;;;21.55;64.43;100688.66;5082789;27;45480;-75
2022/08/23 05:11:07;;;;;;;;;1.00;0.75;;;;;21.56;64.17;100690.34;5080992;27;45706;-78
2022/08/23 05:13:34;;;;;;;;;1.00;0.00;;;;;21.54;64.46;100693.13;5084524;27;46547;-77
2022/08/23 05:15:59;;;;;;;;;0.75;0.75;;;;;21.51;64.21;100687.97;5086278;27;45625;-76
2022/08/23 05:18:25;;;;;;;;;1.25;0.50;;;;;21.55;63.74;100683.28;5088181;27;45390;-75
2022/08/23 05:20:52;;;;;;;;;1.00;1.00;;;;;21.60;64.04;100691.88;5079261;27;45450;-77
2022/08/23 05:23:17;;;;;;;;;0.00;0.00;;;;;21.58;64.39;100683.91;5060929;27;45552;-77
2022/08/23 05:25:48;;;;;;;;;0.00;0.00;;;;;21.64;64.67;100688.91;5081153;27;45589;-75
2022/08/23 05:28:16;;;;;;;;;2.00;0.00;;;;;21.87;64.63;100694.63;5079148;27;45572;-76
2022/08/23 05:30:41;;;;;;;;;0.75;0.75;;;;;22.39;63.17;100695.69;5081691;27;45556;-75
2022/08/23 05:33:07;;;;;;;;;0.00;0.00;;;;;22.60;62.18;100692.50;5081988;27;46192;-76
2022/08/23 05:35:32;;;;;;;;;0.00;0.00;;;;;23.18;60.63;100692.97;5062827;27;45589;-77
2022/08/23 05:38:00;;;;;;;;;0.75;0.75;;;;;23.73;58.65;100690.81;5082180;27;45561;-76
2022/08/23 05:40:28;;;;;;;;;1.00;1.00;;;;;24.52;57.74;100693.94;5078841;27;45670;-77
2022/08/23 05:42:53;;;;;;;;;0.00;0.00;;;;;25.33;55.53;100694.84;5084017;27;45539;-77
2022/08/23 05:45:19;;;;;;;;;2.00;1.00;;;;;26.09;53.46;100693.28;5084628;27;45465;-76
2022/08/23 05:47:45;;;;;;;;;2.50;1.00;;;;;26.71;50.91;100699.78;5084591;27;45555;-75
2022/08/23 05:50:10;;;;;;;;;1.25;1.25;;;;;27.09;49.74;100693.72;5066615;27;45543;-76
2022/08/23 05:52:36;;;;;;;;;1.00;1.00;;;;;27.53;48.90;100679.03;5081449;27;45422;-75
2022/08/23 05:55:01;;;;;;;;;1.00;1.00;;;;;28.22;47.15;100674.63;5081499;27;45558;-77
2022/08/23 05:57:27;;;;;;;;;1.00;1.00;;;;;28.75;46.32;100682.31;5080296;27;45647;-75
2022/08/23 05:59:53;;;;;;;;;0.00;0.00;;;;;29.03;44.88;100679.66;5079709;27;45682;-76
2022/08/23 06:02:19;;;;;;;;;1.50;0.50;;;;;29.17;43.94;100684.63;5076041;27;46157;-77
2022/08/23 06:04:44;;;;;;;;;3.00;0.25;;;;;28.78;45.09;100692.06;5075091;27;45366;-74
2022/08/23 06:07:11;;;;;;;;;1.50;0.50;;;;;28.33;45.34;100694.38;5078787;27;45600;-76
2022/08/23 06:09:36;;;;;;;;;2.50;0.50;;;;;28.18;46.22;100688.50;5082317;27;45560;-76
2022/08/23 06:12:02;;;;;;;;;1.50;0.25;;;;;28.89;45.29;100691.88;5073749;27;46694;-76
2022/08/23 06:14:28;;;;;;;;;1.00;1.00;;;;;29.20;44.08;100689.81;5076201;27;45463;-76
2022/08/23 06:16:55;;;;;;;;;1.00;0.25;;;;;29.41;44.33;100684.13;5081415;27;45505;-76
2022/08/23 06:19:20;;;;;;;;;0.00;0.00;;;;;30.34;42.48;100690.38;5084722;27;45615;-76
2022/08/23 06:21:46;;;;;;;;;0.25;0.25;;;;;30.89;40.68;100692.91;5080227;27;45529;-76
2022/08/23 06:24:13;;;;;;;;;0.75;0.75;;;;;31.57;40.01;100690.38;5080194;27;45609;-77
2022/08/23 06:26:41;;;;;;;;;1.50;1.50;;;;;31.94;38.56;100689.97;5083275;27;45524;-75
2022/08/23 06:29:09;;;;;;;;;2.00;2.00;;;;;32.53;37.61;100706.28;5081830;27;45661;-75
2022/08/23 06:31:45;;;;;;;;;1.00;0.50;;;;;32.65;37.15;100692.28;5079605;27;45520;-77
2022/08/23 06:34:33;;;;;;;;;1.00;1.00;;;;;32.21;38.20;100702.53;5081880;27;45548;-74
2022/08/23 06:37:11;;;;;;;;;1.25;1.00;;;;;31.88;38.45;100712.50;5078517;27;45459;-75
2022/08/23 06:39:37;;;;;;;;;1.00;1.00;;;;;31.45;39.01;100709.78;5081661;27;45612;-75
2022/08/23 06:42:07;;;;;;;;;2.00;2.00;;;;;31.00;39.81;100711.78;5077491;27;45521;-76
2022/08/23 06:44:34;;;;;;;;;1.00;0.50;;;;;30.80;40.20;100718.41;5063260;27;45564;-75
2022/08/23 06:47:00;;;;;;;;;3.25;1.00;;;;;30.86;39.98;100703.28;5079132;27;45690;-75
2022/08/23 06:49:27;;;;;;;;;2.00;2.00;;;;;31.56;38.76;100711.38;5080088;27;45500;-74
2022/08/23 06:51:55;;;;;;;;;2.00;0.50;;;;;32.52;38.22;100704.56;5079709;27;46403;-77
2022/08/23 06:54:24;;;;;;;;;2.00;1.00;;;;;33.24;36.25;100711.22;5059326;27;45834;-77
2022/08/23 06:56:50;;;;;;;;;1.50;1.50;;;;;33.87;35.54;100703.06;5077482;27;45634;-77
2022/08/23 06:59:17;;;;;;;;;1.00;1.00;;;;;34.42;34.20;100713.00;5079129;27;45401;-76
2022/08/23 07:01:53;;;;;;;;;1.00;1.00;;;;;34.55;33.84;100711.53;5081112;27;47144;-76
2022/08/23 07:04:27;;;;;;;;;0.00;0.00;;;;;34.26;34.05;100713.13;5077412;27;45525;-76
2022/08/23 07:06:54;;;;;;;;;2.00;2.00;;;;;33.88;34.98;100722.06;5077369;27;45529;-88
2022/08/23 07:09:20;;;;;;;;;1.50;1.25;;;;;33.54;35.47;100703.22;5080244;27;45466;-75
2022/08/23 07:11:47;;;;;;;;;1.25;1.00;;;;;33.50;35.57;100723.78;5081821;27;46168;-76
2022/08/23 07:14:15;;;;;;;;;1.00;1.00;;;;;33.87;35.53;100722.25;5075311;27;45734;-76
2022/08/23 07:16:47;;;;;;;;;1.00;1.00;;;;;34.34;34.12;100732.25;5077377;27;45378;-75
2022/08/23 07:19:13;;;;;;;;;2.00;2.00;;;;;34.74;33.69;100726.59;5076904;28;45430;-75
2022/08/23 07:21:40;;;;;;;;;1.00;1.00;;;;;35.14;33.09;100727.28;5079026;27;45508;-75
2022/08/23 07:24:07;;;;;;;;;1.00;1.00;;;;;35.28;33.34;100740.16;5057789;28;45435;-76
2022/08/23 07:26:32;;;;;;;;;1.00;1.00;;;;;35.08;33.25;100733.50;5072934;28;45442;-75
2022/08/23 07:28:57;;;;;;;;;1.25;1.00;;;;;34.87;33.18;100735.94;5074520;28;45523;-75
2022/08/23 07:31:30;;;;;;;;;1.75;1.75;;;;;34.67;34.06;100738.31;5074213;27;46276;-74
2022/08/23 07:33:58;;;;;;;;;2.75;2.75;;;;;34.64;33.79;100721.38;5073200;28;45408;-75
2022/08/23 07:36:27;;;;;;;;;2.25;2.25;;;;;34.45;33.69;100733.69;5073795;28;45399;-77
2022/08/23 07:38:53;;;;;;;;;1.00;1.00;;;;;34.12;34.04;100743.00;5055811;28;45584;-75
2022/08/23 07:41:22;;;;;;;;;1.25;1.25;;;;;33.91;35.42;100740.06;5073108;28;46130;-75
2022/08/23 07:43:48;;;;;;;;;2.00;1.00;;;;;33.76;35.70;100738.06;5074140;27;45449;-74
2022/08/23 07:46:14;;;;;;;;;0.75;0.75;;;;;33.45;36.25;100749.81;5077023;28;45501;-76
2022/08/23 07:48:40;;;;;;;;;2.00;1.00;;;;;32.97;36.56;100746.13;5077803;27;45417;-76
2022/08/23 07:51:09;;;;;;;;;1.00;1.00;;;;;32.48;37.67;100749.72;5074620;28;46157;-76
2022/08/23 07:53:34;;;;;;;;;2.00;2.00;;;;;32.18;38.53;100740.28;5073701;28;45379;-76
2022/08/23 07:56:04;;;;;;;;;1.00;1.00;;;;;31.98;38.45;100747.91;5073573;28;45398;-79
2022/08/23 07:58:31;;;;;;;;;1.00;1.00;;;;;31.61;39.03;100752.72;5074090;28;45413;-76
2022/08/23 08:00:56;;;;;;;;;1.75;1.75;;;;;31.22;40.33;100755.91;5073568;27;45442;-76
2022/08/23 08:03:22;;;;;;;;;1.00;1.00;;;;;30.88;40.88;100750.34;5073439;28;45398;-76
2022/08/23 08:05:47;;;;;;;;;0.75;0.75;;;;;30.61;42.22;100758.50;5073503;28;45374;-75
2022/08/23 08:08:12;;;;;;;;;1.25;1.25;;;;;30.32;42.63;100746.94;5073842;28;45447;-76
2022/08/23 08:10:40;;;;;;;;;0.00;0.00;;;;;30.11;42.34;100751.69;5072866;27;45451;-76
2022/08/23 08:13:06;;;;;;;;;2.25;1.25;;;;;29.97;42.83;100759.50;5073572;27;45288;-75
2022/08/23 08:15:32;;;;;;;;;3.25;2.00;;;;;29.95;43.30;100762.38;5073345;28;45439;-76
2022/08/23 08:17:57;;;;;;;;;1.75;1.75;;;;;29.86;43.28;100764.16;5076744;27;45284;-75
2022/08/23 08:20:24;;;;;;;;;1.00;0.50;;;;;29.89;43.36;100758.41;5077128;28;46041;-75
2022/08/23 08:22:49;;;;;;;;;2.25;1.25;;;;;29.89;42.88;100760.28;5075212;27;46000;-75
2022/08/23 08:25:16;;;;;;;;;3.00;2.00;;;;;29.83;43.47;100759.00;5055317;28;45876;-75
2022/08/23 08:27:41;;;;;;;;;3.25;2.25;;;;;29.76;43.22;100758.75;5075351;28;45438;-76
2022/08/23 08:30:09;;;;;;;;;1.75;1.75;;;;;29.68;43.63;100760.50;5076749;27;46771;-75
2022/08/23 08:32:36;;;;;;;;;4.75;3.00;;;;;29.76;43.32;100769.63;5076611;27;45316;-76
2022/08/23 08:35:02;;;;;;;;;2.00;2.00;;;;;29.76;42.98;100766.91;5077914;27;45433;-74
2022/08/23 08:37:30;;;;;;;;;3.00;2.00;;;;;29.71;43.76;100776.53;5077905;28;45582;-74
2022/08/23 08:39:56;;;;;;;;;2.00;2.00;;;;;29.60;44.27;100769.41;5076470;27;46287;-75
2022/08/23 08:42:44;;;;;;;;;2.00;2.00;;;;;29.65;43.97;100768.97;5076215;27;45481;-76
2022/08/23 08:45:15;;;;;;;;;4.75;3.00;;;;;29.69;43.90;100768.50;5076952;27;45301;-76
2022/08/23 08:48:07;;;;;;;;;5.00;5.00;;;;;29.83;43.95;100775.34;5077991;28;45446;-75
2022/08/23 08:50:38;;;;;;;;;2.75;2.75;;;;;29.82;43.83;100776.38;5081147;27;45388;-75
2022/08/23 08:53:12;;;;;;;;;3.25;2.00;;;;;29.91;44.07;100778.19;5078869;28;45439;-75
2022/08/23 08:55:44;;;;;;;;;1.00;1.00;;;;;30.21;44.33;100770.66;5076287;28;45440;-74
2022/08/23 08:58:24;;;;;;;;;3.00;3.00;;;;;30.75;43.24;100783.50;5076783;28;45407;-76
2022/08/23 09:00:52;;;;;;;;;2.50;1.25;;;;;31.00;42.34;100785.44;5076394;28;45395;-76
2022/08/23 09:03:19;;;;;;;;;1.00;1.00;;;;;31.07;41.57;100791.09;5076252;28;45399;-76
2022/08/23 09:05:54;;;;;;;;;0.00;0.00;;;;;31.24;41.97;100789.34;5057505;28;45547;-76
2022/08/23 09:08:35;;;;;;;;;2.75;1.00;;;;;31.47;41.88;100786.06;5058090;28;45631;-77
2022/08/23 09:11:41;;;;;;;;;1.00;1.00;;;;;32.22;40.84;100788.97;5075647;27;45409;-76
2022/08/23 09:14:24;;;;;;;;;0.00;0.00;;;;;32.36;39.85;100782.00;5054743;27;45517;-76
2022/08/23 09:17:02;;;;;;;;;2.00;2.00;;;;;32.37;39.47;100783.72;5077441;28;45476;-75
2022/08/23 09:19:32;;;;;;;;;1.50;1.50;;;;;32.37;39.28;100780.09;5082620;27;45367;-77
2022/08/23 09:22:15;;;;;;;;;1.00;1.00;;;;;32.81;38.62;100779.81;5057085;28;45973;-77
2022/08/23 09:24:41;;;;;;;;;1.00;1.00;;;;;33.16;38.39;100788.69;5075864;28;45481;-76
2022/08/23 09:27:09;;;;;;;;;1.00;1.00;;;;;33.31;37.40;100779.81;5075982;27;45347;-75
2022/08/23 09:29:37;;;;;;;;;0.75;0.00;;;;;33.29;37.12;100788.19;5076670;28;45524;-75
2022/08/23 09:32:06;;;;;;;;;0.00;0.00;;;;;33.29;38.02;100782.72;5058167;27;45470;-76
2022/08/23 09:34:32;;;;;;;;;0.25;0.25;;;;;33.28;37.63;100786.47;5075687;28;45438;-75
2022/08/23 09:37:12;;;;;;;;;1.00;1.00;;;;;33.28;36.57;100781.00;5082345;27;45466;-75
2022/08/23 09:39:46;;;;;;;;;0.50;0.50;;;;;33.21;37.15;100783.59;5075256;28;45701;-75
2022/08/23 09:42:36;;;;;;;;;2.00;1.75;;;;;33.24;37.66;100785.97;5090899;27;46475;-76
2022/08/23 09:45:29;;;;;;;;;1.00;1.00;;;;;33.37;37.37;100785.41;5075499;28;45375;-77
2022/08/23 09:47:55;;;;;;;;;1.00;1.00;;;;;33.52;37.15;100784.72;5070765;27;45480;-76
2022/08/23 09:50:35;;;;;;;;;1.50;1.50;;;;;33.88;36.47;100784.25;5081305;27;45456;-76
2022/08/23 09:53:09;;;;;;;;;1.00;1.00;;;;;33.95;36.60;100782.50;5077786;28;45402;-76
2022/08/23 09:55:40;;;;;;;;;2.25;1.00;;;;;34.00;35.98;100785.56;5056892;28;45403;-76
2022/08/23 09:58:25;;;;;;;;;1.00;1.00;;;;;34.68;34.99;100783.06;5057256;28;45504;-76
2022/08/23 10:01:17;;;;;;;;;1.00;0.00;;;;;35.36;34.35;100785.91;5075616;27;45480;-76
2022/08/23 10:03:43;;;;;;;;;0.75;0.75;;;;;35.93;33.31;100768.75;5075185;27;45693;-76
2022/08/23 10:06:14;;;;;;;;;4.00;2.00;;;;;36.10;32.59;100772.09;5074973;27;45514;-75
2022/08/23 10:08:55;;;;;;;;;2.00;1.00;;;;;35.89;33.44;100780.31;5075450;27;45597;-76
2022/08/23 10:11:28;;;;;;;;;2.00;2.00;;;;;35.34;33.16;100777.00;5075385;28;45516;-76
2022/08/23 10:13:53;;;;;;;;;1.00;1.00;;;;;35.01;34.10;100778.16;5075701;28;46226;-75
2022/08/23 10:17:11;;;;;;;;;0.75;0.75;;;;;34.70;34.45;100770.03;5076349;27;45310;-76
2022/08/23 10:19:57;;;;;;;;;0.00;0.00;;;;;34.43;35.95;100772.28;5055773;28;45443;-76
2022/08/23 10:22:26;;;;;;;;;0.00;0.00;;;;;34.16;35.73;100765.41;5075762;28;45398;-76
2022/08/23 10:25:03;;;;;;;;;0.25;0.25;;;;;33.98;36.27;100761.06;5075761;27;45560;-76
2022/08/23 10:30:58;;;;;;;;;1.00;1.00;;;;;34.57;36.02;100765.16;5075731;27;45334;-76
2022/08/23 10:33:34;;;;;;;;;1.25;1.25;;;;;35.03;34.79;100756.03;5075288;27;45470;-76
2022/08/23 10:35:59;;;;;;;;;3.00;2.00;;;;;34.91;34.28;100755.63;5074043;27;45403;-76
2022/08/23 10:38:32;;;;;;;;;1.00;0.50;;;;;34.36;35.06;100752.09;5075181;27;45387;-75
2022/08/23 10:41:23;;;;;;;;;1.50;1.50;;;;;33.89;35.98;100750.31;5073889;28;45419;-75
2022/08/23 10:44:18;;;;;;;;;1.00;1.00;;;;;33.97;36.57;100742.91;5075085;28;45426;-76
2022/08/23 10:47:01;;;;;;;;;2.75;0.00;;;;;34.00;36.00;100752.66;5013062;28;45440;-77
2022/08/23 10:49:27;;;;;;;;;1.00;1.00;;;;;33.72;36.26;100744.91;5017624;28;45388;-77
2022/08/23 10:51:55;;;;;;;;;0.25;0.25;;;;;33.53;37.26;100748.09;5015388;28;45498;-76
2022/08/23 10:54:44;;;;;;;;;2.00;2.00;;;;;33.79;37.06;100751.41;5012475;28;45495;-75
2022/08/23 10:57:15;;;;;;;;;0.00;0.00;;;;;33.85;37.24;100749.84;5011698;28;45495;-75
2022/08/23 10:59:44;;;;;;;;;0.00;0.00;;;;;33.77;36.58;100744.38;5011473;28;45619;-76
2022/08/23 11:02:48;;;;;;;;;0.00;0.00;;;;;34.12;35.71;100723.81;5011886;28;45344;-76
2022/08/23 11:05:16;;;;;;;;;0.00;0.00;;;;;34.71;34.36;100738.78;5011474;28;45369;-75
2022/08/23 11:08:01;;;;;;;;;0.00;0.00;;;;;35.06;35.29;100739.19;5011834;28;45511;-74
2022/08/23 11:10:45;;;;;;;;;0.00;0.00;;;;;35.71;33.79;100739.47;5011310;28;45345;-76
2022/08/23 11:13:16;;;;;;;;;0.00;0.00;;;;;36.35;32.43;100727.78;4995514;28;45358;-75
2022/08/23 11:15:44;;;;;;;;;0.00;0.00;;;;;36.42;31.48;100725.06;5012075;28;45492;-75
2022/08/23 11:18:43;;;;;;;;;0.00;0.00;;;;;36.15;31.96;100738.53;5012845;28;45585;-77
2022/08/23 11:21:32;;;;;;;;;0.00;0.00;;;;;36.92;32.06;100730.59;5012828;28;45392;-76
2022/08/23 11:24:21;;;;;;;;;0.00;0.00;;;;;37.31;29.97;100730.03;4994154;28;45541;-77
2022/08/23 11:26:46;;;;;;;;;0.00;0.00;;;;;37.46;30.24;100732.66;4971782;28;45491;-76
2022/08/23 11:29:21;;;;;;;;;0.00;0.00;;;;;37.04;30.07;100739.16;4972598;28;46227;-77
2022/08/23 11:32:21;;;;;;;;;0.00;0.00;;;;;36.23;31.82;100732.91;4971356;28;45405;-76
2022/08/23 11:35:04;;;;;;;;;0.00;0.00;;;;;35.75;32.09;100729.81;4972795;28;45541;-77
2022/08/23 11:37:49;;;;;;;;;0.00;0.00;;;;;36.04;32.15;100731.63;4956303;28;45554;-77
2022/08/23 11:40:37;;;;;;;;;0.00;0.00;;;;;36.63;31.41;100732.47;4971517;28;45462;-76
2022/08/23 11:43:11;;;;;;;;;0.00;0.00;;;;;37.12;29.63;100733.47;4972039;28;45398;-75
2022/08/23 11:45:36;;;;;;;;;1.00;0.00;;;;;37.03;30.15;100731.94;4972013;28;45550;-77
2022/08/23 11:48:34;;;;;;;;;0.50;0.50;;;;;37.33;29.35;100729.81;4972855;28;45747;-77
2022/08/23 11:51:11;;;;;;;;;1.25;1.25;;;;;37.07;29.61;100734.09;4959401;28;45551;-76